Time;durP1;ratioP1;P1;durP2;ratioP2;P2;SDS_P1;SDS_P2;PMS_P1;PMS_P2;Temp;Humidity;BMP_temperature;BMP_pressure;BME280_temperature;BME280_humidity;BME280_pressure;Samples;Min_cycle;Max_cycle;Signal;HPM_P1;HPM_P2
2022/04/07 00:00:34;;;;;;;28.27;10.90;;;;;;;11.15;68.36;97244.25;2247849;79;21518;-61
2022/04/07 00:03:37;;;;;;;28.92;10.98;;;;;;;11.16;68.16;97234.58;2209173;79;21523;-62
2022/04/07 00:06:39;;;;;;;28.03;10.47;;;;;;;11.05;68.56;97231.11;2231128;79;21809;-61
2022/04/07 00:09:40;;;;;;;26.43;9.83;;;;;;;11.09;68.51;97221.16;2242651;79;20985;-61
2022/04/07 00:12:42;;;;;;;26.85;9.90;;;;;;;11.07;68.58;97225.23;2235359;79;20984;-61
2022/04/07 00:15:44;;;;;;;27.13;10.15;;;;;;;11.13;68.39;97220.42;2238619;79;21092;-61
2022/04/07 00:18:48;;;;;;;28.90;10.23;;;;;;;11.14;68.45;97212.91;2239077;79;21100;-61
2022/04/07 00:21:49;;;;;;;27.10;10.25;;;;;;;11.16;68.16;97205.25;2248231;79;21017;-61
2022/04/07 00:24:50;;;;;;;26.48;9.20;;;;;;;11.18;67.96;97203.30;2239376;79;20992;-61
2022/04/07 00:27:52;;;;;;;26.93;10.20;;;;;;;11.22;67.83;97194.66;2243516;79;20996;-61
2022/04/07 00:30:54;;;;;;;30.50;10.18;;;;;;;11.25;67.54;97186.03;2242857;78;20985;-61
2022/04/07 00:33:55;;;;;;;26.45;9.18;;;;;;;11.21;67.74;97189.08;2239898;79;21005;-61
2022/04/07 00:36:59;;;;;;;27.22;9.33;;;;;;;11.26;67.57;97190.79;2226357;79;20980;-60
2022/04/07 00:40:00;;;;;;;29.72;10.13;;;;;;;11.19;67.85;97185.28;2215765;79;20969;-61
2022/04/07 00:43:01;;;;;;;28.10;9.25;;;;;;;11.18;67.90;97181.48;2246012;79;21468;-61
2022/04/07 00:46:03;;;;;;;26.43;9.67;;;;;;;11.18;67.82;97181.48;2230656;79;21040;-61
2022/04/07 00:49:04;;;;;;;27.95;11.00;;;;;;;11.27;67.68;97175.40;2245165;79;21553;-60
2022/04/07 00:52:06;;;;;;;26.33;10.00;;;;;;;11.31;67.62;97171.53;2245600;78;20993;-61
2022/04/07 00:55:07;;;;;;;28.03;10.80;;;;;;;11.33;67.42;97171.39;2243063;79;20969;-61
2022/04/07 00:58:09;;;;;;;30.92;10.98;;;;;;;11.35;67.44;97169.45;2238434;79;21033;-61
2022/04/07 01:01:10;;;;;;;27.65;10.23;;;;;;;11.39;67.14;97162.49;2238503;79;21068;-60
2022/04/07 01:04:12;;;;;;;27.60;10.45;;;;;;;11.32;67.36;97165.33;2239349;79;20980;-61
2022/04/07 01:07:13;;;;;;;29.15;11.28;;;;;;;11.18;67.75;97163.13;2242713;79;21021;-61
2022/04/07 01:10:16;;;;;;;29.18;10.90;;;;;;;11.12;67.92;97158.40;2239927;79;21008;-62
2022/04/07 01:13:19;;;;;;;;;;;;;;;11.15;67.75;97158.13;2250483;78;21012;-61
2022/04/07 01:16:21;;;;;;;28.80;10.70;;;;;;;11.16;67.78;97159.78;2280960;77;20128;-61
2022/04/07 01:19:23;;;;;;;;;;;;;;;11.19;67.68;97158.20;2247224;79;21072;-61
2022/04/07 01:22:24;;;;;;;29.98;10.38;;;;;;;11.24;67.53;97156.00;2242817;79;20105;-61
2022/04/07 01:25:25;;;;;;;30.82;11.15;;;;;;;11.22;67.33;97160.08;2241590;79;21000;-61
2022/04/07 01:28:27;;;;;;;30.68;10.80;;;;;;;11.15;67.46;97162.91;2236095;79;20957;-61
2022/04/07 01:31:28;;;;;;;28.98;10.30;;;;;;;11.15;67.39;97168.16;2239394;79;20989;-61
2022/04/07 01:34:30;;;;;;;26.53;9.80;;;;;;;11.08;67.59;97156.06;2240516;79;20994;-61
2022/04/07 01:37:31;;;;;;;27.20;10.63;;;;;;;11.07;67.62;97156.20;2237066;79;21044;-61
2022/04/07 01:40:33;;;;;;;30.20;11.63;;;;;;;11.06;67.53;97162.40;2246331;79;21579;-61
2022/04/07 01:43:34;;;;;;;27.32;10.78;;;;;;;10.99;67.75;97154.27;2237679;79;21082;-61
2022/04/07 01:46:35;;;;;;;28.67;10.45;;;;;;;11.00;67.72;97157.71;2241849;79;21622;-61
2022/04/07 01:49:37;;;;;;;29.33;11.10;;;;;;;10.88;68.25;97160.95;2245124;79;20992;-62
2022/04/07 01:52:39;;;;;;;31.40;11.03;;;;;;;11.07;67.47;97154.39;2240434;79;21004;-61
2022/04/07 01:55:40;;;;;;;31.87;12.33;;;;;;;11.10;67.14;97155.92;2240409;79;20995;-61
2022/04/07 01:58:42;;;;;;;33.85;14.65;;;;;;;10.95;67.53;97158.59;2236744;79;20992;-61
2022/04/07 02:01:43;;;;;;;30.48;11.75;;;;;;;11.01;67.33;97156.26;2237532;79;21522;-61
2022/04/07 02:04:45;;;;;;;31.37;11.25;;;;;;;10.93;67.57;97165.28;2238202;79;20996;-61
2022/04/07 02:07:47;;;;;;;30.82;12.82;;;;;;;10.91;67.66;97158.05;2245129;79;21119;-61
2022/04/07 02:10:48;;;;;;;27.60;11.33;;;;;;;10.84;67.77;97161.69;2242114;79;21072;-61
2022/04/07 02:13:50;;;;;;;29.00;11.40;;;;;;;10.84;67.68;97155.63;2239171;79;21031;-61
2022/04/07 02:16:51;;;;;;;32.73;11.97;;;;;;;10.88;67.52;97151.77;2240478;79;21007;-61
2022/04/07 02:19:53;;;;;;;26.97;10.08;;;;;;;10.70;68.09;97155.06;2238406;79;21001;-61
2022/04/07 02:22:54;;;;;;;26.77;10.05;;;;;;;10.73;67.96;97146.07;2245760;79;21498;-61
2022/04/07 02:25:56;;;;;;;27.83;10.97;;;;;;;10.61;68.16;97156.34;2237909;79;21028;-61
2022/04/07 02:28:57;;;;;;;30.80;11.90;;;;;;;10.61;68.23;97150.61;2241129;79;21560;-61
2022/04/07 02:31:59;;;;;;;29.02;11.08;;;;;;;10.55;68.62;97148.53;2236242;79;21302;-61
2022/04/07 02:35:00;;;;;;;29.82;10.58;;;;;;;10.57;68.56;97147.91;2236634;79;21000;-61
2022/04/07 02:38:02;;;;;;;28.55;10.60;;;;;;;10.57;68.60;97145.28;2238892;79;21035;-61
2022/04/07 02:41:03;;;;;;;30.23;11.60;;;;;;;10.60;68.30;97147.63;2239535;79;21508;-61
2022/04/07 02:44:05;;;;;;;29.05;11.73;;;;;;;10.63;68.30;97143.45;2239555;79;20973;-61
2022/04/07 02:47:06;;;;;;;33.05;12.10;;;;;;;10.65;68.42;97144.63;2245356;79;20988;-61
2022/04/07 02:53:46;;;;;;;38.33;18.82;;;;;;;10.69;68.20;97138.16;2247359;79;21555;-61
2022/04/07 02:56:47;;;;;;;32.80;14.10;;;;;;;10.77;68.10;97144.84;2239630;78;20980;-61
2022/04/07 02:59:49;;;;;;;33.33;13.03;;;;;;;10.71;68.16;97139.66;2286464;77;21524;-61
2022/04/07 03:02:50;;;;;;;35.63;14.25;;;;;;;10.72;68.13;97133.95;2269848;77;20989;-61
2022/04/07 03:05:52;;;;;;;33.90;13.43;;;;;;;10.84;67.70;97129.40;2280435;77;21027;-61
2022/04/07 03:08:54;;;;;;;30.57;12.20;;;;;;;10.82;67.78;97129.53;2245611;78;21051;-61
2022/04/07 03:11:56;;;;;;;37.53;14.85;;;;;;;10.81;67.72;97127.87;2242302;78;21048;-61
2022/04/07 03:14:57;;;;;;;32.50;12.93;;;;;;;10.69;68.06;97124.55;2249858;78;20996;-61
2022/04/07 03:17:58;;;;;;;31.27;12.53;;;;;;;10.74;67.89;97121.52;2242523;79;20996;-61
2022/04/07 03:21:00;;;;;;;32.33;13.78;;;;;;;10.62;67.92;97120.00;2245854;78;21474;-61
2022/04/07 03:24:01;;;;;;;32.63;13.53;;;;;;;10.54;68.08;97113.64;2274046;78;21068;-61
2022/04/07 03:27:04;;;;;;;31.10;12.93;;;;;;;10.58;67.78;97107.63;2247654;79;21636;-61
2022/04/07 03:30:06;;;;;;;36.42;14.43;;;;;;;10.42;68.16;97104.71;2242315;79;21000;-62
2022/04/07 03:33:08;;;;;;;34.35;15.00;;;;;;;10.19;68.75;97103.58;2241101;79;21008;-61
2022/04/07 03:36:09;;;;;;;33.23;13.95;;;;;;;10.17;68.65;97105.48;2244954;79;20999;-62
2022/04/07 03:39:11;;;;;;;32.90;13.88;;;;;;;10.09;68.76;97097.48;2234056;79;20972;-60
2022/04/07 03:42:12;;;;;;;30.12;12.85;;;;;;;9.92;69.14;97098.44;2229188;79;21593;-61
2022/04/07 03:45:14;;;;;;;29.12;11.20;;;;;;;9.82;69.53;97097.08;2241199;79;21012;-61
2022/04/07 03:48:15;;;;;;;26.73;10.93;;;;;;;9.74;69.64;97094.31;2238965;79;20981;-61
2022/04/07 03:51:17;;;;;;;34.05;12.25;;;;;;;9.66;69.47;97084.47;2238174;79;20954;-61
2022/04/07 03:54:18;;;;;;;34.05;13.35;;;;;;;9.59;69.51;97087.27;2233366;79;21023;-61
2022/04/07 03:57:20;;;;;;;35.88;13.05;;;;;;;9.56;69.73;97088.02;2237612;79;20989;-61
2022/04/07 04:00:22;;;;;;;32.70;11.88;;;;;;;9.46;69.78;97092.70;2231315;79;21023;-61
2022/04/07 04:03:24;;;;;;;30.72;11.63;;;;;;;9.32;69.79;97088.64;2239332;79;20996;-61
2022/04/07 04:06:25;;;;;;;29.97;11.27;;;;;;;9.21;70.50;97092.62;2235517;79;21004;-61
2022/04/07 04:09:27;;;;;;;30.13;11.23;;;;;;;9.17;70.41;97089.91;2234077;79;21036;-61
2022/04/07 04:12:28;;;;;;;30.37;10.43;;;;;;;9.17;70.46;97083.38;2245788;79;20989;-61
2022/04/07 04:15:29;;;;;;;37.00;13.18;;;;;;;9.02;70.42;97091.98;2244683;79;21531;-61
2022/04/07 04:18:31;;;;;;;52.88;16.10;;;;;;;8.92;70.51;97093.25;2238461;79;20990;-61
2022/04/07 04:21:32;;;;;;;50.73;17.32;;;;;;;8.81;70.55;97097.21;2241145;79;20952;-61
2022/04/07 04:24:34;;;;;;;43.15;17.40;;;;;;;8.67;71.18;97097.83;2241313;79;21020;-61
2022/04/07 04:27:35;;;;;;;44.10;16.77;;;;;;;8.76;71.33;97096.73;2231179;79;20941;-61
2022/04/07 04:30:37;;;;;;;33.23;13.35;;;;;;;8.75;71.20;97093.77;2233424;79;21494;-61
2022/04/07 04:33:38;;;;;;;30.45;11.80;;;;;;;8.69;71.00;97099.50;2245285;78;21035;-61
2022/04/07 04:36:40;;;;;;;28.52;11.48;;;;;;;8.66;71.33;97108.41;2242818;79;21518;-61
2022/04/07 04:39:42;;;;;;;26.87;10.98;;;;;;;8.66;71.61;97099.27;2225061;79;21013;-61
2022/04/07 04:42:44;;;;;;;30.30;12.37;;;;;;;8.72;71.60;97100.55;2244745;79;21618;-61
2022/04/07 04:45:45;;;;;;;32.90;11.97;;;;;;;8.77;71.68;97108.87;2235527;79;21016;-61
2022/04/07 04:48:47;;;;;;;28.65;11.43;;;;;;;8.81;71.85;97104.56;2242337;79;20953;-61
2022/04/07 04:51:48;;;;;;;30.50;11.63;;;;;;;8.80;71.76;97102.89;2243024;79;21038;-61
2022/04/07 04:54:50;;;;;;;30.32;13.03;;;;;;;9.05;71.97;97110.06;2232570;79;20995;-61
2022/04/07 04:57:51;;;;;;;36.28;14.23;;;;;;;9.26;71.71;97104.02;2241638;79;21059;-61
2022/04/07 05:00:53;;;;;;;32.67;13.48;;;;;;;9.33;71.68;97102.55;2245012;79;21032;-61
2022/04/07 05:03:54;;;;;;;33.02;13.90;;;;;;;9.44;71.88;97097.25;2243983;79;20993;-62
2022/04/07 05:06:56;;;;;;;33.53;13.90;;;;;;;9.44;71.63;97102.48;2282262;77;21023;-61
2022/04/07 05:09:58;;;;;;;42.78;19.92;;;;;;;9.51;71.30;97095.77;2277919;77;21004;-61
2022/04/07 05:12:59;;;;;;;55.28;27.58;;;;;;;9.53;71.01;97094.33;2285514;77;21546;-61
2022/04/07 05:16:01;;;;;;;39.07;17.40;;;;;;;9.56;70.83;97094.07;2280032;77;20949;-60
2022/04/07 05:19:02;;;;;;;37.90;17.77;;;;;;;9.60;71.20;97093.34;2284151;77;21597;-61
2022/04/07 05:22:04;;;;;;;41.35;16.77;;;;;;;9.68;70.99;97097.43;2283158;78;21064;-60
2022/04/07 05:25:05;;;;;;;36.08;17.60;;;;;;;9.89;71.16;97097.40;2285239;77;21108;-61
2022/04/07 05:28:06;;;;;;;40.20;20.88;;;;;;;10.12;70.78;97101.14;2283269;77;20965;-60
2022/04/07 05:31:08;;;;;;;38.55;18.90;;;;;;;10.33;70.67;97103.66;2281859;77;21015;-60
2022/04/07 05:34:09;;;;;;;34.90;16.52;;;;;;;10.56;70.30;97104.33;2283696;77;21118;-61
2022/04/07 05:37:11;;;;;;;36.10;15.32;;;;;;;10.66;70.11;97104.31;2285912;77;21075;-61
2022/04/07 05:40:12;;;;;;;35.08;14.98;;;;;;;10.69;69.69;97106.20;2284201;77;21047;-61
2022/04/07 05:43:14;;;;;;;33.60;16.33;;;;;;;10.73;69.68;97106.73;2284918;77;21561;-61
2022/04/07 05:46:15;;;;;;;32.25;15.28;;;;;;;10.88;69.46;97101.94;2284253;77;20941;-61
2022/04/07 05:49:17;;;;;;;38.17;16.27;;;;;;;10.96;69.09;97106.48;2285204;77;21563;-60
2022/04/07 05:52:18;;;;;;;37.53;16.52;;;;;;;11.19;69.28;97105.71;2286066;77;21020;-61
2022/04/07 05:55:20;;;;;;;36.40;15.65;;;;;;;11.55;69.06;97098.91;2239422;79;21006;-60
2022/04/07 05:58:22;;;;;;;35.50;15.50;;;;;;;11.93;68.31;97100.23;2241303;79;20981;-61
2022/04/07 06:01:23;;;;;;;31.97;14.35;;;;;;;12.16;67.54;97091.52;2247031;79;21007;-61
2022/04/07 06:04:26;;;;;;;34.48;15.13;;;;;;;12.37;66.80;97086.02;2220112;79;21548;-61
2022/04/07 06:07:28;;;;;;;31.33;14.53;;;;;;;12.55;66.91;97084.72;2242937;79;20993;-61
2022/04/07 06:10:29;;;;;;;41.85;19.67;;;;;;;12.62;65.92;97077.06;2240281;79;21519;-61
2022/04/07 06:13:31;;;;;;;33.88;14.83;;;;;;;12.69;65.01;97073.36;2237438;79;20965;-61
2022/04/07 06:16:32;;;;;;;33.08;15.28;;;;;;;12.86;65.12;97065.95;2242029;79;21070;-61
2022/04/07 06:19:33;;;;;;;35.85;14.38;;;;;;;12.98;64.87;97063.91;2241246;79;21502;-61
2022/04/07 06:22:35;;;;;;;29.30;13.43;;;;;;;13.15;64.29;97066.19;2233294;79;21473;-61
2022/04/07 06:25:37;;;;;;;32.17;14.13;;;;;;;13.29;63.60;97063.00;2240175;79;20989;-61
2022/04/07 06:28:40;;;;;;;31.10;12.40;;;;;;;13.41;62.90;97058.34;2230302;79;21021;-61
2022/04/07 06:31:42;;;;;;;31.57;13.75;;;;;;;13.59;62.28;97059.61;2242290;79;20992;-61
2022/04/07 06:34:43;;;;;;;27.77;12.78;;;;;;;13.70;61.87;97055.88;2247172;78;21501;-61
2022/04/07 06:37:46;;;;;;;32.15;13.13;;;;;;;13.71;60.58;97054.90;2246742;79;21077;-61
2022/04/07 06:40:47;;;;;;;29.10;12.03;;;;;;;13.77;61.49;97054.77;2232026;79;21565;-61
2022/04/07 06:43:48;;;;;;;29.10;12.33;;;;;;;13.79;60.53;97054.95;2238377;79;21055;-61
2022/04/07 06:46:50;;;;;;;33.20;11.20;;;;;;;13.81;61.45;97056.92;2240402;79;21507;-61
2022/04/07 06:49:52;;;;;;;26.82;11.53;;;;;;;14.02;60.65;97052.58;2242579;79;21036;-60
2022/04/07 06:52:53;;;;;;;27.00;11.50;;;;;;;13.97;59.92;97054.03;2243129;79;21449;-61
2022/04/07 06:55:55;;;;;;;28.13;10.20;;;;;;;14.03;60.59;97044.17;2241886;79;21024;-61
2022/04/07 06:58:56;;;;;;;29.17;11.13;;;;;;;14.19;60.14;97044.24;2240371;79;21023;-61
2022/04/07 07:01:57;;;;;;;26.40;10.33;;;;;;;14.09;59.71;97047.48;2249247;79;20977;-61
2022/04/07 07:04:59;;;;;;;35.13;14.50;;;;;;;14.05;57.69;97051.44;2236950;79;21004;-61
2022/04/07 07:08:01;;;;;;;27.70;11.10;;;;;;;14.31;59.40;97038.17;2237830;79;21020;-61
2022/04/07 07:11:02;;;;;;;29.70;11.33;;;;;;;14.56;58.30;97036.39;2233055;79;20961;-61
2022/04/07 07:14:03;;;;;;;25.17;10.03;;;;;;;14.72;57.99;97040.93;2241096;79;21543;-62
2022/04/07 07:17:06;;;;;;;24.13;9.33;;;;;;;14.71;58.23;97045.87;2238001;79;21124;-61
2022/04/07 07:20:07;;;;;;;28.92;10.58;;;;;;;14.60;58.35;97043.50;2244964;79;21514;-61
2022/04/07 07:23:08;;;;;;;26.67;11.30;;;;;;;14.43;58.64;97043.96;2235316;79;21031;-61
2022/04/07 07:26:12;;;;;;;27.00;11.93;;;;;;;14.30;58.89;97047.56;2248952;79;22262;-60
2022/04/07 07:29:13;;;;;;;28.62;11.65;;;;;;;14.37;58.79;97047.25;2242872;78;21140;-61
2022/04/07 07:32:15;;;;;;;27.10;10.90;;;;;;;14.46;58.61;97043.63;2243909;79;20981;-61
2022/04/07 07:35:19;;;;;;;25.50;9.80;;;;;;;14.80;58.94;97044.56;2236484;79;21045;-62
2022/04/07 07:38:21;;;;;;;27.05;10.55;;;;;;;15.29;58.54;97037.13;2210917;79;21015;-61
2022/04/07 07:41:23;;;;;;;29.82;12.03;;;;;;;15.52;56.61;97043.34;2242606;79;21024;-61
2022/04/07 07:44:25;;;;;;;;;;;;;;;15.73;57.85;97041.97;2241146;79;21550;-62
2022/04/07 07:47:26;;;;;;;22.58;8.00;;;;;;;15.90;55.78;97039.66;2239516;79;20134;-61
2022/04/07 07:50:28;;;;;;;26.00;8.87;;;;;;;16.04;54.27;97026.20;2238907;79;21488;-61
2022/04/07 07:53:30;;;;;;;23.65;8.03;;;;;;;16.12;54.28;97029.32;2245998;79;21000;-61
2022/04/07 07:56:31;;;;;;;21.93;7.00;;;;;;;16.15;53.00;97028.97;2234569;79;21468;-61
2022/04/07 07:59:32;;;;;;;22.20;7.07;;;;;;;16.27;50.21;97045.27;2242343;79;21001;-61
2022/04/07 08:02:34;;;;;;;20.07;6.37;;;;;;;16.34;53.06;97040.12;2240079;79;21487;-61
2022/04/07 08:05:35;;;;;;;18.90;6.10;;;;;;;16.49;51.89;97036.22;2240254;79;21224;-61
2022/04/07 08:08:37;;;;;;;21.00;5.95;;;;;;;16.48;52.40;97040.70;2235678;79;21063;-61
2022/04/07 08:11:38;;;;;;;19.23;6.43;;;;;;;16.70;51.34;97038.25;2243909;78;21114;-61
2022/04/07 08:14:40;;;;;;;22.48;7.30;;;;;;;16.62;52.13;97038.63;2227173;79;20972;-62
2022/04/07 08:17:42;;;;;;;20.32;6.58;;;;;;;16.98;52.04;97027.95;2245608;79;21086;-61
2022/04/07 08:20:44;;;;;;;21.45;6.37;;;;;;;17.04;51.35;97019.80;2284749;77;20958;-61
2022/04/07 08:23:45;;;;;;;22.95;6.97;;;;;;;17.06;48.27;97025.24;2243176;79;21507;-61
2022/04/07 08:26:47;;;;;;;22.75;7.12;;;;;;;16.74;50.91;97012.56;2237881;79;21045;-61
2022/04/07 08:29:48;;;;;;;20.47;6.63;;;;;;;16.74;51.68;97019.19;2236706;79;21008;-61
2022/04/07 08:32:50;;;;;;;23.35;7.50;;;;;;;16.82;51.02;97011.67;2240108;79;21492;-61
2022/04/07 08:35:54;;;;;;;24.87;7.90;;;;;;;16.79;50.53;97017.32;2242591;79;21033;-61
2022/04/07 08:38:55;;;;;;;22.20;6.12;;;;;;;17.01;50.70;97006.92;2209585;79;21028;-61
2022/04/07 08:41:56;;;;;;;19.90;5.50;;;;;;;17.20;48.06;97005.10;2239622;79;21079;-61
2022/04/07 08:44:57;;;;;;;22.73;6.78;;;;;;;17.29;49.86;96997.37;2239616;79;21004;-61
2022/04/07 08:47:59;;;;;;;21.73;6.40;;;;;;;17.50;49.90;96993.22;2230486;79;21023;-61
2022/04/07 08:51:04;;;;;;;19.77;6.22;;;;;;;17.86;49.42;96995.12;2232710;79;21001;-61
2022/04/07 08:54:07;;;;;;;19.77;5.87;;;;;;;18.16;47.88;96985.83;2242012;78;20978;-62
2022/04/07 08:57:08;;;;;;;19.52;5.05;;;;;;;17.95;48.14;96978.64;2242240;79;20969;-61
2022/04/07 09:00:10;;;;;;;18.20;5.28;;;;;;;18.22;47.70;96981.09;2243160;79;21487;-62
2022/04/07 09:03:12;;;;;;;17.23;5.03;;;;;;;18.15;47.14;96976.22;2244643;78;21063;-61
2022/04/07 09:06:13;;;;;;;17.27;4.10;;;;;;;18.40;46.82;96951.98;2236604;79;21522;-62
2022/04/07 09:09:16;;;;;;;14.25;3.52;;;;;;;18.40;43.55;96967.39;2236787;79;21069;-61
2022/04/07 09:12:19;;;;;;;13.68;3.52;;;;;;;18.21;44.82;96961.39;2234736;79;21007;-61
2022/04/07 09:15:22;;;;;;;12.33;3.05;;;;;;;18.26;43.19;96949.20;2245048;78;21024;-61
2022/04/07 09:18:24;;;;;;;9.90;2.80;;;;;;;18.29;43.79;96942.19;2240493;78;21017;-61
2022/04/07 09:21:27;;;;;;;9.90;2.52;;;;;;;18.63;42.41;96945.99;2240270;79;21043;-61
2022/04/07 09:24:28;;;;;;;9.10;2.67;;;;;;;18.59;39.54;96932.78;2238743;79;21005;-62
2022/04/07 09:27:30;;;;;;;6.17;2.58;;;;;;;19.01;40.18;96928.44;2244936;79;21008;-62
2022/04/07 09:30:31;;;;;;;8.53;2.37;;;;;;;19.38;41.82;96905.16;2238645;79;21051;-62
2022/04/07 09:33:33;;;;;;;11.40;2.50;;;;;;;19.69;40.31;96910.51;2238583;79;21005;-62
2022/04/07 09:36:35;;;;;;;7.75;2.50;;;;;;;19.81;38.84;96899.33;2241272;79;21020;-61
2022/04/07 09:39:39;;;;;;;8.83;2.58;;;;;;;20.04;38.66;96919.78;2239486;79;21460;-61
2022/04/07 09:45:43;;;;;;;9.38;2.55;;;;;;;20.17;41.17;96908.36;2210346;79;21036;-61
2022/04/07 09:48:44;;;;;;;7.72;2.45;;;;;;;20.67;38.95;96902.69;2235030;79;20983;-62
2022/04/07 09:51:46;;;;;;;7.95;2.65;;;;;;;20.85;37.76;96901.28;2240063;79;21000;-62
2022/04/07 09:54:48;;;;;;;12.55;3.40;;;;;;;20.83;36.66;96890.83;2240931;78;21043;-62
2022/04/07 09:57:50;;;;;;;21.33;6.12;;;;;;;20.35;36.71;96889.13;2243065;79;21032;-62
2022/04/07 10:00:51;;;;;;;15.85;4.20;;;;;;;19.96;38.94;96900.00;2244976;79;21548;-62
2022/04/07 10:03:53;;;;;;;14.68;3.37;;;;;;;20.29;38.01;96888.61;2245408;79;20976;-62
2022/04/07 10:06:55;;;;;;;14.10;3.58;;;;;;;20.61;37.99;96871.53;2240246;79;21040;-62
2022/04/07 10:09:56;;;;;;;19.45;5.37;;;;;;;20.92;37.98;96854.13;2234934;79;21056;-61
2022/04/07 10:12:59;;;;;;;11.88;3.50;;;;;;;20.92;37.98;96854.13;2246898;79;20973;-62
2022/04/07 10:16:01;;;;;;;12.25;3.30;;;;;;;21.00;37.88;96863.22;2242456;79;21029;-62
2022/04/07 10:19:03;;;;;;;9.85;2.98;;;;;;;21.00;37.88;96863.22;2231517;79;21035;-61
2022/04/07 10:22:05;;;;;;;8.30;2.60;;;;;;;21.04;35.85;96840.45;2239246;79;20994;-61
2022/04/07 10:25:07;;;;;;;6.62;2.15;;;;;;;21.04;35.85;96840.45;2243775;79;21027;-61
2022/04/07 10:28:08;;;;;;;7.45;1.92;;;;;;;20.61;35.93;96826.25;2240352;79;21479;-61
2022/04/07 10:31:10;;;;;;;9.90;2.12;;;;;;;20.34;35.80;96832.94;2238941;79;21020;-62
2022/04/07 10:34:12;;;;;;;;;;;;;;;20.11;36.94;96830.64;2279261;78;21065;-62
2022/04/07 10:37:14;;;;;;;10.50;2.70;;;;;;;19.54;37.37;96828.76;2241395;78;20105;-62
2022/04/07 10:40:15;;;;;;;8.23;2.40;;;;;;;19.38;39.05;96829.41;2241753;78;21012;-61
2022/04/07 10:43:18;;;;;;;9.35;2.60;;;;;;;19.60;38.56;96807.20;2244463;78;21127;-61
2022/04/07 10:46:20;;;;;;;7.87;2.02;;;;;;;19.78;38.53;96810.09;2276534;78;21175;-62
2022/04/07 10:49:22;;;;;;;10.18;2.83;;;;;;;19.79;36.54;96802.45;2240563;79;21005;-62
2022/04/07 10:52:24;;;;;;;11.35;2.87;;;;;;;19.70;38.28;96800.46;2244897;79;20981;-62
2022/04/07 10:55:26;;;;;;;10.28;2.60;;;;;;;20.23;37.97;96804.27;2240185;79;21020;-62
2022/04/07 10:58:28;;;;;;;15.93;4.20;;;;;;;20.47;38.05;96800.14;2241080;79;20952;-62
2022/04/07 11:01:29;;;;;;;8.83;2.50;;;;;;;21.00;36.39;96784.60;2234954;79;20957;-61
2022/04/07 11:04:31;;;;;;;10.70;2.95;;;;;;;21.50;36.49;96786.66;2240666;79;21016;-62
2022/04/07 11:07:33;;;;;;;10.13;2.50;;;;;;;21.77;36.24;96782.03;2236616;79;20992;-62
2022/04/07 11:10:34;;;;;;;7.33;2.22;;;;;;;21.77;36.24;96782.03;2224638;79;21557;-62
2022/04/07 11:13:35;;;;;;;7.50;2.22;;;;;;;21.92;34.62;96776.41;2232671;79;21015;-62
2022/04/07 11:16:38;;;;;;;9.05;2.35;;;;;;;21.76;35.17;96784.39;2237823;79;21014;-62
2022/04/07 11:19:40;;;;;;;6.45;2.00;;;;;;;21.50;35.67;96778.67;2236207;79;21023;-61
2022/04/07 11:22:41;;;;;;;5.60;1.52;;;;;;;21.10;34.48;96776.17;2231789;79;21529;-61
2022/04/07 11:25:43;;;;;;;6.65;1.85;;;;;;;20.23;36.33;96754.50;2245263;79;20988;-62
2022/04/07 11:28:44;;;;;;;12.55;2.60;;;;;;;20.22;36.33;96768.02;2244840;79;21507;-62
2022/04/07 11:31:46;;;;;;;4.78;2.02;;;;;;;20.76;37.05;96756.83;2230557;79;21042;-62
2022/04/07 11:34:47;;;;;;;7.87;2.10;;;;;;;20.54;36.15;96757.05;2236794;79;21050;-61
2022/04/07 11:37:49;;;;;;;6.28;1.67;;;;;;;20.05;36.93;96767.59;2238345;79;21005;-62
2022/04/07 11:40:50;;;;;;;4.28;1.62;;;;;;;19.91;36.61;96756.12;2233094;79;21004;-61
2022/04/07 11:43:52;;;;;;;7.75;2.30;;;;;;;19.49;36.49;96764.20;2240401;79;21019;-62
2022/04/07 11:46:54;;;;;;;7.97;1.98;;;;;;;19.17;37.33;96763.89;2240286;78;21059;-62
2022/04/07 11:49:56;;;;;;;4.33;1.77;;;;;;;19.04;38.39;96769.97;2244707;79;21098;-62
2022/04/07 11:52:57;;;;;;;5.35;1.90;;;;;;;19.16;38.52;96757.45;2243776;78;21130;-62
2022/04/07 11:56:00;;;;;;;5.20;1.90;;;;;;;19.62;38.32;96754.11;2272985;78;21540;-62
2022/04/07 11:59:01;;;;;;;7.47;2.20;;;;;;;19.70;37.22;96739.30;2246908;79;20965;-62
2022/04/07 12:02:03;;;;;;;12.85;2.20;;;;;;;19.55;37.93;96746.14;2243384;79;20999;-62
2022/04/07 12:05:05;;;;;;;10.68;2.50;;;;;;;19.86;38.13;96725.34;2246820;79;21080;-61
2022/04/07 12:08:06;;;;;;;8.33;1.80;;;;;;;20.18;37.29;96729.00;2224063;79;21014;-62
2022/04/07 12:11:08;;;;;;;10.32;2.33;;;;;;;19.84;36.90;96736.18;2250399;79;21052;-62
2022/04/07 12:14:09;;;;;;;6.47;2.50;;;;;;;19.95;38.48;96725.95;2229662;79;21557;-62
2022/04/07 12:17:11;;;;;;;7.25;2.25;;;;;;;20.19;36.89;96713.35;2226971;79;21060;-62
2022/04/07 12:20:12;;;;;;;8.28;2.47;;;;;;;20.29;35.94;96712.12;2230783;79;21527;-61
2022/04/07 12:23:14;;;;;;;8.13;2.00;;;;;;;20.66;36.80;96723.93;2243830;78;21083;-63
2022/04/07 12:26:15;;;;;;;11.15;2.72;;;;;;;20.56;36.28;96706.23;2217363;79;21498;-62
2022/04/07 12:29:17;;;;;;;12.07;3.15;;;;;;;20.02;37.19;96715.60;2233164;79;21068;-62
2022/04/07 12:32:19;;;;;;;8.95;2.62;;;;;;;20.10;37.93;96697.80;2240519;79;21083;-61
2022/04/07 12:35:20;;;;;;;8.73;2.10;;;;;;;20.29;35.19;96708.94;2238879;79;21004;-61
2022/04/07 12:38:21;;;;;;;9.88;2.22;;;;;;;19.76;37.05;96714.26;2231495;79;21053;-63
2022/04/07 12:41:23;;;;;;;8.13;2.50;;;;;;;19.02;36.14;96700.78;2242161;79;21553;-61
2022/04/07 12:44:27;;;;;;;8.00;2.10;;;;;;;18.84;38.77;96700.80;2223283;79;21084;-61
2022/04/07 12:47:28;;;;;;;9.40;2.58;;;;;;;18.85;37.54;96693.14;2217746;79;20961;-62
2022/04/07 12:50:29;;;;;;;8.08;2.60;;;;;;;18.72;38.74;96705.53;2217393;79;21602;-62
2022/04/07 12:53:31;;;;;;;;;;;;;;;18.76;37.82;96706.78;2213016;79;20987;-62
2022/04/07 12:56:33;;;;;;;7.72;2.42;;;;;;;18.41;38.38;96686.39;2211877;79;20102;-62
2022/04/07 12:59:35;;;;;;;6.90;2.62;;;;;;;18.39;39.11;96683.61;2229969;79;21032;-62
2022/04/07 13:02:36;;;;;;;9.40;2.62;;;;;;;18.58;39.06;96670.97;2235740;79;21103;-62
2022/04/07 13:05:38;;;;;;;7.53;2.20;;;;;;;19.36;38.29;96677.27;2235771;79;21068;-62
2022/04/07 13:08:40;;;;;;;6.80;2.30;;;;;;;20.03;36.47;96651.26;2228756;79;21062;-62
2022/04/07 13:11:42;;;;;;;11.73;2.85;;;;;;;19.58;37.65;96649.70;2220126;79;21032;-62
2022/04/07 13:14:44;;;;;;;7.20;2.70;;;;;;;19.19;38.42;96644.12;2228039;79;21163;-62
2022/04/07 13:17:46;;;;;;;9.00;2.52;;;;;;;19.53;39.13;96637.02;2246091;79;21103;-62
2022/04/07 13:20:48;;;;;;;11.78;3.50;;;;;;;19.85;36.89;96615.44;2227780;79;21085;-62
2022/04/07 13:23:49;;;;;;;11.50;2.98;;;;;;;20.04;38.33;96613.80;2225373;79;21587;-62
2022/04/07 13:26:51;;;;;;;11.05;2.60;;;;;;;20.71;37.77;96597.62;2236499;79;21076;-63
2022/04/07 13:29:52;;;;;;;11.45;2.72;;;;;;;21.09;37.11;96594.14;2227710;79;21064;-62
2022/04/07 13:32:54;;;;;;;6.72;2.12;;;;;;;21.06;36.00;96581.75;2224471;79;20956;-62
2022/04/07 13:35:55;;;;;;;10.10;2.70;;;;;;;21.02;36.28;96578.70;2228219;78;21036;-62
2022/04/07 13:38:57;;;;;;;9.90;2.60;;;;;;;20.88;35.81;96561.98;2231094;79;21089;-62
2022/04/07 13:42:00;;;;;;;13.83;3.65;;;;;;;20.91;34.96;96549.55;2217251;79;20966;-60
2022/04/07 13:45:07;;;;;;;6.17;2.42;;;;;;;20.98;34.07;96560.70;2209022;79;21507;-60
2022/04/07 13:48:08;;;;;;;10.98;2.77;;;;;;;20.98;34.07;96560.70;2239273;79;20993;-60
2022/04/07 13:51:10;;;;;;;5.78;2.30;;;;;;;20.39;35.44;96559.45;2246841;78;20984;-60
2022/04/07 13:54:11;;;;;;;12.18;2.80;;;;;;;20.29;35.75;96541.25;2236949;79;21072;-60
2022/04/07 13:57:12;;;;;;;7.70;2.40;;;;;;;20.24;35.74;96548.55;2211504;79;21079;-60
2022/04/07 14:00:14;;;;;;;8.48;2.10;;;;;;;20.70;36.03;96524.09;2242388;79;21108;-60
2022/04/07 14:03:16;;;;;;;9.80;2.50;;;;;;;20.72;34.73;96513.22;2239580;79;21162;-60
2022/04/07 14:06:17;;;;;;;8.65;2.42;;;;;;;20.94;35.04;96513.67;2226377;79;21048;-60
2022/04/07 14:09:19;;;;;;;9.48;2.42;;;;;;;21.27;35.11;96508.08;2236354;79;21519;-60